Hawaii Aviation Weather

Weather Information Updated from 1800wxbrief.com

Please note, all weather information provided should be validated for accuracy before flying. Click on each Blue link for more information.

REAL TIME LOCAL RADAR – Base Reflectivity (10min)

General Forecasts (Prog Charts)
Hawaii Lo-Level Sig Progs

Thunderstorm & Severe Weather Forecast
Hawaii Severe Weather Outlook

General Forecasts (Prog Charts)
NE Pacific Surface Analysis

General Forecasts (Prog Charts)
Hawaii Surface Forecast

Aviation Weather from NOAA

PHNL – Honolulu

Available data for PHNL from the past 2 hours
HONOLULU, HI
Metar
PHNL 182153Z 06017G22KT 10SM FEW025 FEW048 32/19 A3002 RMK AO2 SLP165 T03170194

21:53 UTC

Wind: 60° 17kt

Visibility: 10 SM

Sky: FEW 2500 ft

Temp: 32 deg C / 89.6 deg F

Dewpoint: 19 deg C / 66.2 deg F

Pressure: 30.02 inHg

TAF
PHNL 182058Z 1821/1924 07014G20KT P6SM FEW025 SCT045 FM190800 06009KT P6SM FEW025 SCT045 FM192000 06013G19KT P6SM FEW025 SCT045

PHJR – Kalealoa (Rogers)

Available data for PHJR from the past 2 hours
KALAELOA, HI
Metar
PHJR 182153Z 09009G16KT 10SM BKN045 OVC050 30/19 A3003

21:53 UTC

Wind: 90° 9kt

Visibility: 10 SM

Sky: BKN 4500 ft

Temp: 30 deg C / 86 deg F

Dewpoint: 19 deg C / 66.2 deg F

Pressure: 30.03 inHg

TAF
PHJR 181740Z 1818/1918 VRB05KT P6SM FEW025 SCT045 FM182000 11009KT P6SM FEW025 FEW045 FM190500 VRB05KT P6SM FEW045 AMD NOT SKED

PHNG – Kaneohe

Available data for PHNG from the past 2 hours
KANEOHE MCAS, HI
Metar
PHNG 182157Z 07011KT 10SM BKN040 28/22 A3002 RMK AO2 SLP159 T02830217 $

21:57 UTC

Wind: 70° 11kt

Visibility: 10 SM

Sky: BKN 4000 ft

Temp: 28 deg C / 82.4 deg F

Dewpoint: 22 deg C / 71.6 deg F

Pressure: 30.02 inHg

TAF
TAF PHNG 1821/1921 09011KT FEW020 SCT030 QNH2994INS TEMPO 1821/1900 10010G20KT BKN040 T29/1823Z T24/1913Z

PHHI – Wheeler

Available data for PHHI from the past 2 hours
WHEELER AFB/OAHU, HI
Metar
PHHI 182202Z AUTO 06015KT 10SM -DZ SCT200 29/19 A3003 RMK AO2 DZB02 SLP157 $

22:02 UTC

Wind: 60° 15kt

Visibility: 10 SM

Sky: SCT 20000 ft

Temp: 29 deg C / 84.2 deg F

Dewpoint: 19 deg C / 66.2 deg F

Pressure: 30.03 inHg

TAF
TAF PHHI 181500Z 1815/1921 VRB06KT 9999 SCT025 QNH2998INS BECMG 1819/1820 07009KT 9999 FEW030 SCT040 QNH2992INS TEMPO 1822/1902 09010G15KT BECMG 1905/1906 VRB06KT 9999 SCT025 BKN030 QNH2998INS BECMG 1919/1920 07009KT 9999 FEW030 SCT050 QNH2994INS TX30/1900Z TN20/1915Z
Honolulu 3 Day Forecast (Wind, Temp, etc)
HAWAII INFRARED Satellite
HAWAII Visible Satellite
HAWAII National Weather Service Forecast